Time;durP1;ratioP1;P1;durP2;ratioP2;P2;SDS_P1;SDS_P2;PMS_P1;PMS_P2;Temp;Humidity;BMP_temperature;BMP_pressure;BME280_temperature;BME280_humidity;BME280_pressure;Samples;Min_cycle;Max_cycle;Signal;HPM_P1;HPM_P2
2022/01/10 00:11:45;;;;;;;57.50;20.63;;;-3.20;99.90;;;;;;5179160;27;20146;-65
2022/01/10 00:15:33;;;;;;;59.20;22.40;;;-3.20;99.90;;;;;;5162282;27;20224;-65
2022/01/10 00:18:47;;;;;;;62.10;20.93;;;-3.10;99.90;;;;;;5078847;28;20158;-65
2022/01/10 00:22:24;;;;;;;;;;;;;;;;;;;;;
2022/01/10 00:25:08;;;;;;;57.70;21.77;;;-3.00;99.90;;;;;;5063471;28;20158;-65
2022/01/10 01:09:05;;;;;;;54.63;20.63;;;-2.70;99.90;;;;;;4966470;28;20162;-66
2022/01/10 01:16:14;;;;;;;58.07;21.07;;;-2.60;99.90;;;;;;4943658;29;20568;-66
2022/01/10 01:46:11;;;;;;;51.80;18.10;;;-2.40;99.90;;;;;;5077344;28;20241;-67
2022/01/10 02:28:11;;;;;;;40.73;15.67;;;-2.30;99.90;;;;;;4942966;29;20160;-67
2022/01/10 02:35:00;;;;;;;41.03;16.43;;;-2.20;99.90;;;;;;4924218;29;20445;-68
2022/01/10 02:38:48;;;;;;;;;;;;;;;;;;;;;
2022/01/10 02:53:32;;;;;;;42.57;16.57;;;-1.90;99.90;;;;;;4823576;29;20154;-68
2022/01/10 02:55:59;;;;;;;43.13;16.53;;;-1.80;99.90;;;;;;4810237;29;20332;-68
2022/01/10 02:58:25;;;;;;;43.00;16.97;;;-1.80;99.90;;;;;;4841785;29;20264;-68
2022/01/10 03:00:51;;;;;;;42.17;17.17;;;-1.80;99.90;;;;;;4841752;29;20146;-68
2022/01/10 03:03:17;;;;;;;44.03;17.90;;;-1.80;99.90;;;;;;4860152;29;20275;-67
2022/01/10 03:05:43;;;;;;;42.63;17.23;;;-1.80;99.90;;;;;;4879027;29;20157;-67
2022/01/10 03:08:13;;;;;;;43.20;18.07;;;-1.80;99.90;;;;;;4879236;29;20171;-67
2022/01/10 03:10:44;;;;;;;39.97;17.13;;;-1.70;99.90;;;;;;4882480;29;20163;-68
2022/01/10 03:13:12;;;;;;;42.47;17.33;;;-1.70;99.90;;;;;;4901064;29;20157;-68
2022/01/10 03:15:40;;;;;;;45.03;17.87;;;-1.60;99.90;;;;;;4899638;29;20161;-68
2022/01/10 03:18:08;;;;;;;43.70;17.37;;;-1.60;99.90;;;;;;4900089;29;20164;-68
2022/01/10 03:20:36;;;;;;;40.60;17.20;;;-1.50;99.90;;;;;;4901041;29;20209;-68
2022/01/10 03:23:10;;;;;;;37.73;16.70;;;-1.50;99.90;;;;;;4922811;28;20144;-68
2022/01/10 03:25:38;;;;;;;43.57;17.53;;;-1.50;99.90;;;;;;4976442;28;20274;-68
2022/01/10 03:28:13;;;;;;;43.27;18.00;;;-1.40;99.90;;;;;;4991815;28;20183;-68
2022/01/10 03:30:41;;;;;;;42.63;17.30;;;-1.40;99.90;;;;;;5127316;27;20202;-67
2022/01/10 03:33:09;;;;;;;41.83;17.93;;;-1.30;99.90;;;;;;5142249;27;20219;-67
2022/01/10 03:35:37;;;;;;;40.90;17.17;;;-1.30;99.90;;;;;;5159094;27;20171;-68
2022/01/10 03:38:05;;;;;;;40.17;16.93;;;-1.30;99.90;;;;;;5140887;27;20207;-68
2022/01/10 03:40:33;;;;;;;41.63;18.10;;;-1.30;99.90;;;;;;5140175;27;20227;-68
2022/01/10 03:43:00;;;;;;;41.27;17.20;;;-1.30;99.90;;;;;;5139913;27;20144;-68
2022/01/10 03:45:28;;;;;;;40.27;17.30;;;-1.30;99.90;;;;;;5167854;27;20186;-68
2022/01/10 03:47:56;;;;;;;40.33;16.67;;;-1.30;99.90;;;;;;5181250;27;20123;-67
2022/01/10 03:50:24;;;;;;;39.33;17.23;;;-1.40;99.90;;;;;;5160635;27;20178;-67
2022/01/10 03:52:51;;;;;;;39.43;17.00;;;-1.40;99.90;;;;;;5179534;27;20175;-67
2022/01/10 03:55:19;;;;;;;38.90;16.47;;;-1.40;99.90;;;;;;5181482;27;20496;-67
2022/01/10 03:57:46;;;;;;;44.47;17.00;;;-1.40;99.90;;;;;;5162254;27;20192;-67
2022/01/10 04:00:14;;;;;;;37.50;15.90;;;-1.40;99.90;;;;;;5161844;27;20191;-67
2022/01/10 04:02:46;;;;;;;40.20;16.47;;;-1.40;99.90;;;;;;5180341;27;20115;-67
2022/01/10 04:05:13;;;;;;;39.30;16.47;;;-1.40;99.90;;;;;;5160546;27;20165;-68
2022/01/10 04:07:41;;;;;;;37.30;16.40;;;-1.40;99.90;;;;;;5160802;27;20224;-67
2022/01/10 04:10:09;;;;;;;43.67;17.30;;;-1.40;99.90;;;;;;5162842;27;20178;-67
2022/01/10 04:12:36;;;;;;;40.33;16.93;;;-1.30;99.90;;;;;;5160910;27;20200;-67
2022/01/10 04:15:06;;;;;;;38.67;16.80;;;-1.40;99.90;;;;;;5160933;27;20154;-67
2022/01/10 04:17:35;;;;;;;38.40;15.57;;;-1.50;99.90;;;;;;5160602;27;20148;-67
2022/01/10 04:20:04;;;;;;;37.70;15.60;;;-1.50;99.90;;;;;;5161890;27;20199;-67
2022/01/10 04:22:31;;;;;;;34.20;14.97;;;-1.40;99.90;;;;;;5179839;27;20171;-67
2022/01/10 04:25:05;;;;;;;34.70;15.30;;;-1.40;99.90;;;;;;5161948;27;20194;-67
2022/01/10 04:27:33;;;;;;;35.17;14.77;;;-1.40;99.90;;;;;;5161155;27;20148;-67
2022/01/10 04:30:00;;;;;;;36.30;14.83;;;-1.40;99.90;;;;;;5160539;27;20198;-68
2022/01/10 04:32:30;;;;;;;32.53;14.07;;;-1.40;99.90;;;;;;5179868;27;20434;-68
2022/01/10 04:34:58;;;;;;;33.40;13.90;;;-1.40;99.90;;;;;;5179646;27;20158;-67
2022/01/10 04:37:26;;;;;;;32.60;14.00;;;-1.50;99.90;;;;;;5181614;27;20124;-67
2022/01/10 04:39:53;;;;;;;30.30;13.17;;;-1.40;99.90;;;;;;5179476;27;20159;-68
2022/01/10 04:42:20;;;;;;;35.83;14.87;;;-1.40;99.90;;;;;;5160261;27;20241;-68
2022/01/10 04:44:49;;;;;;;33.93;14.37;;;-1.40;99.90;;;;;;5161613;27;20509;-67
2022/01/10 04:47:26;;;;;;;32.43;14.37;;;-1.40;99.90;;;;;;5179770;27;20115;-67
2022/01/10 04:50:45;;;;;;;34.77;14.50;;;-1.30;99.90;;;;;;5179845;27;20118;-67
2022/01/10 04:52:52;;;;;;;35.17;14.13;;;-1.40;99.90;;;;;;5179357;27;20115;-67
2022/01/10 04:55:21;;;;;;;33.30;15.13;;;-1.40;99.90;;;;;;5160312;27;20140;-68
2022/01/10 04:57:49;;;;;;;35.37;14.53;;;-1.40;99.90;;;;;;5160360;27;20174;-68
2022/01/10 05:00:31;;;;;;;33.67;14.73;;;-1.30;99.90;;;;;;5160044;27;20147;-68
2022/01/10 05:02:59;;;;;;;35.53;15.20;;;-1.30;99.90;;;;;;5179387;27;20140;-68
2022/01/10 05:05:27;;;;;;;36.90;15.37;;;-1.20;99.90;;;;;;5160118;27;20199;-67
2022/01/10 05:07:55;;;;;;;33.10;14.47;;;-1.20;99.90;;;;;;5160370;27;20164;-68
2022/01/10 05:10:22;;;;;;;35.90;16.10;;;-1.20;99.90;;;;;;5162352;27;20162;-68
2022/01/10 05:12:50;;;;;;;33.80;14.43;;;-1.20;99.90;;;;;;5161756;27;20251;-67
2022/01/10 05:15:17;;;;;;;37.10;15.37;;;-1.20;99.90;;;;;;5161385;27;20181;-68
2022/01/10 05:17:48;;;;;;;34.10;14.93;;;-1.10;99.90;;;;;;5160038;27;20159;-68
2022/01/10 05:20:15;;;;;;;34.20;14.70;;;-1.10;99.90;;;;;;5179583;27;20114;-68
2022/01/10 05:22:43;;;;;;;32.90;14.47;;;-1.00;99.90;;;;;;5159762;27;20138;-68
2022/01/10 05:25:16;;;;;;;34.97;15.37;;;-1.10;99.90;;;;;;5161050;27;20178;-68
2022/01/10 05:28:26;;;;;;;34.90;15.23;;;-1.10;99.90;;;;;;5179762;27;20104;-68
2022/01/10 05:32:19;;;;;;;32.17;14.53;;;-1.10;99.90;;;;;;5107008;28;20167;-68
2022/01/10 05:34:48;;;;;;;33.70;14.90;;;-1.10;99.90;;;;;;5074477;28;20156;-68
2022/01/10 05:37:18;;;;;;;38.60;15.90;;;-1.10;99.90;;;;;;5091151;28;20146;-68
2022/01/10 05:39:45;;;;;;;37.40;15.50;;;-1.20;99.90;;;;;;5090832;28;20185;-68
2022/01/10 05:42:22;;;;;;;41.67;16.47;;;-1.20;99.90;;;;;;5091007;28;20144;-68
2022/01/10 05:44:50;;;;;;;37.43;15.47;;;-1.20;99.90;;;;;;5090744;28;20156;-68
2022/01/10 05:47:45;;;;;;;39.00;16.70;;;-1.30;99.90;;;;;;5091164;28;20193;-67
2022/01/10 05:51:05;;;;;;;;;;;;;;;;;;;;;
2022/01/10 05:54:09;;;;;;;42.77;16.90;;;-1.40;99.90;;;;;;4975929;28;20169;-67
2022/01/10 05:56:54;;;;;;;43.93;18.03;;;-1.50;99.90;;;;;;4975124;28;20152;-68
2022/01/10 05:59:55;;;;;;;48.00;19.70;;;-1.50;99.90;;;;;;4959158;28;20151;-68
2022/01/10 06:03:45;;;;;;;50.60;19.43;;;-1.40;99.90;;;;;;4918225;29;20224;-68
2022/01/10 06:06:37;;;;;;;48.77;19.03;;;-1.50;99.90;;;;;;4904481;29;20159;-68
2022/01/10 06:09:30;;;;;;;59.60;21.27;;;-1.40;99.90;;;;;;5015328;28;20150;-67
2022/01/10 06:12:00;;;;;;;55.53;20.57;;;-1.40;99.90;;;;;;5046799;28;20181;-68
2022/01/10 06:14:37;;;;;;;56.30;21.33;;;-1.40;99.90;;;;;;5077875;28;20168;-68
2022/01/10 06:17:42;;;;;;;59.70;22.53;;;-1.40;99.90;;;;;;5094705;28;20427;-67
2022/01/10 06:21:05;;;;;;;58.73;21.63;;;-1.40;99.90;;;;;;5057449;28;20331;-67
2022/01/10 06:27:10;;;;;;;61.87;21.27;;;-1.40;99.90;;;;;;5084535;28;20129;-68
2022/01/10 06:29:47;;;;;;;60.23;21.40;;;-1.40;99.90;;;;;;5116255;28;20432;-67
2022/01/10 06:32:25;;;;;;;60.43;21.40;;;-1.30;99.90;;;;;;5116165;28;20353;-67
2022/01/10 06:35:18;;;;;;;63.03;21.47;;;-1.40;99.90;;;;;;5116934;28;20105;-67
2022/01/10 06:37:51;;;;;;;67.57;22.10;;;-1.30;99.90;;;;;;5098329;28;20159;-67
2022/01/10 06:40:25;;;;;;;64.30;21.83;;;-1.30;99.90;;;;;;5115559;28;20144;-67
2022/01/10 06:42:52;;;;;;;62.37;22.47;;;-1.30;99.90;;;;;;5115404;28;20131;-68
2022/01/10 06:45:20;;;;;;;64.53;23.63;;;-1.20;99.90;;;;;;5115254;28;20219;-67
2022/01/10 06:48:14;;;;;;;63.10;22.90;;;-1.20;99.90;;;;;;5116096;28;20184;-69
2022/01/10 06:51:07;;;;;;;64.13;22.03;;;-1.10;99.90;;;;;;5034688;28;20153;-68
2022/01/10 06:53:46;;;;;;;63.30;22.00;;;-1.10;99.90;;;;;;5018402;28;20145;-68
2022/01/10 06:56:16;;;;;;;67.23;22.47;;;-1.10;99.90;;;;;;5036271;28;20122;-68
2022/01/10 06:58:44;;;;;;;59.50;22.50;;;-1.10;99.90;;;;;;5035507;28;20180;-68
2022/01/10 07:01:17;;;;;;;58.93;22.00;;;-1.10;99.90;;;;;;5034891;28;20223;-67
2022/01/10 07:03:48;;;;;;;61.70;22.73;;;-1.00;99.90;;;;;;5064536;28;20195;-67
2022/01/10 07:06:19;;;;;;;66.00;22.50;;;-1.00;99.90;;;;;;5074481;28;20130;-67
2022/01/10 07:08:47;;;;;;;62.30;22.43;;;-1.00;99.90;;;;;;5074718;28;20189;-67
2022/01/10 07:11:15;;;;;;;57.97;22.30;;;-1.00;99.90;;;;;;5058210;28;20304;-67
2022/01/10 07:13:42;;;;;;;61.73;21.90;;;-1.10;99.90;;;;;;5076752;28;20159;-67
2022/01/10 07:16:10;;;;;;;63.70;21.97;;;-1.10;99.90;;;;;;5074502;28;20154;-67
2022/01/10 07:18:39;;;;;;;66.27;24.47;;;-1.10;99.90;;;;;;5076511;28;20136;-68
2022/01/10 07:21:07;;;;;;;68.43;23.60;;;-1.10;99.90;;;;;;5057769;28;20142;-67
2022/01/10 07:23:37;;;;;;;61.90;22.87;;;-1.20;99.90;;;;;;5074120;28;20201;-68
2022/01/10 07:26:07;;;;;;;62.63;22.83;;;-1.20;99.90;;;;;;5075143;28;20183;-67
2022/01/10 07:28:35;;;;;;;65.37;22.77;;;-1.10;99.90;;;;;;5164551;27;20153;-67
2022/01/10 07:31:07;;;;;;;62.43;22.97;;;-1.00;99.90;;;;;;5160696;27;20148;-68
2022/01/10 07:33:43;;;;;;;65.60;24.10;;;-1.00;99.90;;;;;;5160876;27;20202;-68
2022/01/10 07:36:11;;;;;;;64.73;23.63;;;-1.00;99.90;;;;;;5160421;27;20143;-68
2022/01/10 07:38:38;;;;;;;66.00;23.53;;;-1.00;99.90;;;;;;5160751;27;20144;-67
2022/01/10 07:41:07;;;;;;;66.87;24.00;;;-1.00;99.90;;;;;;5180236;27;20162;-68
2022/01/10 07:43:35;;;;;;;70.13;24.57;;;-1.00;99.90;;;;;;5161157;27;20157;-68
2022/01/10 07:46:05;;;;;;;68.17;24.37;;;-1.10;99.90;;;;;;5160824;27;20160;-67
2022/01/10 07:48:37;;;;;;;70.03;24.07;;;-1.10;99.90;;;;;;5160726;27;20152;-68
2022/01/10 07:51:09;;;;;;;64.27;24.30;;;-1.00;99.90;;;;;;5160839;27;20139;-68
2022/01/10 07:53:38;;;;;;;67.37;24.00;;;-1.00;99.90;;;;;;5179826;27;20169;-68
2022/01/10 07:56:06;;;;;;;67.83;24.47;;;-1.00;99.90;;;;;;5180278;27;20143;-67
2022/01/10 07:58:35;;;;;;;70.33;23.50;;;-1.00;99.90;;;;;;5161700;27;20159;-68
2022/01/10 08:01:08;;;;;;;65.77;24.17;;;-1.00;99.90;;;;;;5161226;27;20155;-68
2022/01/10 08:03:36;;;;;;;62.90;23.67;;;-1.00;99.90;;;;;;5160608;27;20148;-68
2022/01/10 08:06:04;;;;;;;65.30;25.20;;;-1.00;99.90;;;;;;5178874;27;20173;-68
2022/01/10 08:08:33;;;;;;;66.83;24.50;;;-1.00;99.90;;;;;;5160918;27;20215;-68
2022/01/10 08:11:07;;;;;;;63.90;24.47;;;-1.10;99.90;;;;;;5161096;27;20183;-68
2022/01/10 08:13:37;;;;;;;66.47;24.33;;;-1.10;99.90;;;;;;5160510;27;20144;-68
2022/01/10 08:16:05;;;;;;;62.10;24.07;;;-1.10;99.90;;;;;;5179850;27;20112;-68
2022/01/10 08:18:35;;;;;;;69.47;24.00;;;-1.10;99.90;;;;;;5160768;27;20162;-68
2022/01/10 08:21:06;;;;;;;67.00;25.13;;;-1.20;99.90;;;;;;5160898;27;20162;-67
2022/01/10 08:23:38;;;;;;;69.37;24.73;;;-1.20;99.90;;;;;;5162120;27;20139;-68
2022/01/10 08:26:08;;;;;;;63.80;24.20;;;-1.20;99.90;;;;;;5161899;27;20139;-68
2022/01/10 08:28:38;;;;;;;64.40;25.00;;;-1.20;99.90;;;;;;5161631;27;20482;-68
2022/01/10 08:31:10;;;;;;;62.30;24.10;;;-1.20;99.90;;;;;;5160751;27;20151;-67
2022/01/10 08:33:38;;;;;;;59.80;22.53;;;-1.30;99.90;;;;;;5159219;27;20191;-68
2022/01/10 08:36:10;;;;;;;58.70;23.13;;;-1.30;99.90;;;;;;5160406;27;20151;-67
2022/01/10 08:39:02;;;;;;;53.20;23.77;;;-1.30;99.90;;;;;;5160093;27;20151;-68
2022/01/10 08:44:56;;;;;;;53.40;21.67;;;-1.30;99.90;;;;;;5175724;27;20163;-68
2022/01/10 08:47:23;;;;;;;46.30;21.20;;;-1.30;99.90;;;;;;5160239;27;20201;-68
2022/01/10 08:50:02;;;;;;;53.07;21.90;;;-1.30;99.90;;;;;;5160477;27;20251;-67
2022/01/10 08:52:37;;;;;;;54.07;22.00;;;-1.30;99.90;;;;;;5160279;27;20139;-68
2022/01/10 08:59:39;;;;;;;48.03;19.83;;;-1.20;99.90;;;;;;5176542;27;20159;-67
2022/01/10 09:02:15;;;;;;;48.77;19.90;;;-1.10;99.90;;;;;;5159955;27;20162;-67
2022/01/10 09:04:53;;;;;;;46.20;19.63;;;-1.00;99.90;;;;;;5159614;27;20194;-68
2022/01/10 09:07:23;;;;;;;47.00;19.90;;;-1.10;99.90;;;;;;5143001;27;20211;-68
2022/01/10 09:10:02;;;;;;;45.80;19.30;;;-1.10;99.90;;;;;;5160575;27;20223;-68
2022/01/10 09:12:31;;;;;;;47.47;19.33;;;-1.00;99.90;;;;;;5180005;27;20207;-68
2022/01/10 09:15:15;;;;;;;44.40;19.17;;;-1.00;99.90;;;;;;5155914;27;20519;-67
2022/01/10 09:17:45;;;;;;;49.73;20.33;;;-0.90;99.90;;;;;;5160002;27;20168;-68
2022/01/10 09:20:16;;;;;;;46.57;19.50;;;-0.80;99.90;;;;;;5161434;27;20116;-68
2022/01/10 09:22:44;;;;;;;48.40;19.93;;;-0.70;99.90;;;;;;5160560;27;20147;-68
2022/01/10 09:25:14;;;;;;;49.23;19.13;;;-0.80;99.90;;;;;;5160377;27;20143;-67
2022/01/10 09:27:54;;;;;;;49.80;19.87;;;-0.80;99.90;;;;;;5160199;27;20144;-67
2022/01/10 09:30:23;;;;;;;48.17;19.40;;;-0.70;99.90;;;;;;5159647;27;20167;-67
2022/01/10 09:33:11;;;;;;;51.10;19.63;;;-0.70;99.90;;;;;;5159397;27;20219;-68
2022/01/10 09:35:44;;;;;;;50.57;19.17;;;-0.70;99.90;;;;;;5160489;27;20177;-67
2022/01/10 09:38:15;;;;;;;49.07;19.60;;;-0.60;99.90;;;;;;5160123;27;20190;-67
2022/01/10 09:41:03;;;;;;;50.93;19.50;;;-0.50;99.90;;;;;;5160458;27;20147;-67
2022/01/10 09:43:35;;;;;;;42.63;18.13;;;-0.50;99.90;;;;;;5159818;27;20135;-67
2022/01/10 09:46:13;;;;;;;44.50;18.87;;;-0.40;99.90;;;;;;5160051;27;20216;-67
2022/01/10 09:48:47;;;;;;;47.73;19.03;;;-0.20;99.90;;;;;;5159782;27;20144;-68
2022/01/10 09:51:45;;;;;;;43.87;18.53;;;-0.10;99.90;;;;;;5179328;27;20115;-68
2022/01/10 09:54:20;;;;;;;45.73;18.33;;;0.00;99.90;;;;;;5097689;28;20186;-68
2022/01/10 09:57:30;;;;;;;42.80;18.77;;;-0.10;99.90;;;;;;5054681;28;20160;-68
2022/01/10 10:00:31;;;;;;;40.10;17.23;;;0.10;99.90;;;;;;5037843;28;20142;-68
2022/01/10 10:03:28;;;;;;;41.80;17.37;;;0.20;99.90;;;;;;5050149;28;20149;-68
2022/01/10 10:06:01;;;;;;;40.10;16.63;;;0.10;99.90;;;;;;5054659;28;20179;-67
2022/01/10 10:08:38;;;;;;;41.43;17.27;;;0.00;99.90;;;;;;5054271;28;20148;-68
2022/01/10 10:11:08;;;;;;;41.40;18.10;;;-0.10;99.90;;;;;;5037812;28;20188;-68
2022/01/10 10:14:06;;;;;;;42.57;16.67;;;0.00;99.90;;;;;;5037764;28;20181;-69
2022/01/10 10:17:42;;;;;;;40.83;16.87;;;0.10;99.90;;;;;;5038103;28;20156;-68
2022/01/10 10:20:36;;;;;;;33.63;15.03;;;0.20;99.90;;;;;;4995216;28;20173;-67
2022/01/10 10:23:40;;;;;;;40.17;16.90;;;0.20;99.90;;;;;;5005436;28;20142;-68
2022/01/10 10:26:32;;;;;;;35.73;15.87;;;0.30;99.90;;;;;;4995133;28;20498;-67
2022/01/10 10:29:09;;;;;;;36.40;16.17;;;0.40;99.90;;;;;;4996133;28;20159;-68
2022/01/10 10:32:04;;;;;;;33.00;14.37;;;0.40;99.90;;;;;;5003037;28;20689;-68
2022/01/10 10:34:33;;;;;;;30.83;14.07;;;0.40;99.90;;;;;;5083817;28;20281;-68
2022/01/10 10:37:15;;;;;;;30.37;14.27;;;0.40;99.90;;;;;;5092544;28;20156;-67
2022/01/10 10:39:46;;;;;;;29.00;13.33;;;0.50;99.90;;;;;;5094915;28;20201;-68
2022/01/10 10:42:16;;;;;;;30.53;13.30;;;0.40;99.90;;;;;;5094774;28;20203;-68
2022/01/10 10:44:44;;;;;;;28.63;12.93;;;0.40;99.90;;;;;;5095094;28;20148;-68
2022/01/10 10:47:25;;;;;;;29.77;12.93;;;0.30;99.90;;;;;;5094566;28;20242;-67
2022/01/10 10:50:16;;;;;;;28.60;13.33;;;0.20;99.90;;;;;;5117308;27;20156;-68
2022/01/10 10:52:46;;;;;;;29.43;12.43;;;0.10;99.90;;;;;;5161151;27;20143;-68
2022/01/10 10:55:15;;;;;;;25.03;11.53;;;0.20;99.90;;;;;;5160967;27;20199;-67
2022/01/10 10:57:43;;;;;;;24.63;11.40;;;0.30;99.90;;;;;;5162464;27;20186;-68
2022/01/10 11:00:15;;;;;;;25.57;11.43;;;0.30;99.90;;;;;;5160465;27;20151;-67
2022/01/10 11:02:42;;;;;;;25.53;11.63;;;0.40;99.90;;;;;;5180662;27;20135;-68
2022/01/10 11:05:09;;;;;;;24.27;11.23;;;0.50;99.90;;;;;;5161675;27;20148;-67
2022/01/10 11:07:37;;;;;;;23.87;11.97;;;0.60;99.90;;;;;;5160818;27;20152;-69
2022/01/10 11:10:13;;;;;;;19.33;9.70;;;0.60;99.90;;;;;;5180321;27;20138;-67
2022/01/10 11:12:47;;;;;;;22.67;10.40;;;0.60;99.90;;;;;;5160526;27;20150;-68
2022/01/10 11:15:14;;;;;;;23.13;10.57;;;0.50;99.90;;;;;;5160521;27;20140;-67
2022/01/10 11:17:41;;;;;;;20.50;9.50;;;0.60;99.90;;;;;;5181744;27;20128;-67
2022/01/10 11:20:10;;;;;;;21.60;9.43;;;0.70;99.90;;;;;;5179859;27;20132;-67
2022/01/10 11:22:42;;;;;;;19.57;9.53;;;0.70;99.90;;;;;;5160699;27;20143;-68
2022/01/10 11:25:32;;;;;;;18.33;8.90;;;0.90;99.90;;;;;;5161686;27;20159;-68
2022/01/10 11:28:08;;;;;;;17.57;8.80;;;0.90;99.90;;;;;;5180139;27;20189;-68
2022/01/10 11:30:36;;;;;;;18.03;8.73;;;0.90;99.90;;;;;;5160258;27;20194;-67
2022/01/10 11:33:26;;;;;;;19.43;9.13;;;1.00;99.90;;;;;;5158132;27;20482;-68
2022/01/10 11:35:56;;;;;;;17.23;8.30;;;1.10;99.90;;;;;;5159047;27;20160;-68
2022/01/10 11:38:42;;;;;;;17.87;7.97;;;1.00;99.90;;;;;;5179243;27;20162;-68
2022/01/10 11:41:13;;;;;;;16.73;8.43;;;0.90;99.90;;;;;;5160797;27;20471;-68
2022/01/10 11:43:51;;;;;;;17.33;8.83;;;0.90;99.90;;;;;;5178092;27;20139;-67
2022/01/10 11:46:25;;;;;;;17.63;8.70;;;1.00;99.90;;;;;;5160508;27;20159;-68
2022/01/10 11:48:55;;;;;;;17.70;8.73;;;1.10;99.90;;;;;;5180390;27;20144;-68
2022/01/10 11:51:31;;;;;;;17.67;8.03;;;1.70;99.90;;;;;;5160610;27;20179;-68
2022/01/10 11:54:08;;;;;;;18.63;8.53;;;2.40;99.90;;;;;;5179992;27;20126;-68
2022/01/10 11:56:37;;;;;;;18.90;8.40;;;3.10;99.90;;;;;;5161607;27;20150;-68
2022/01/10 11:59:08;;;;;;;17.33;8.77;;;3.70;99.90;;;;;;5162003;27;20196;-68
2022/01/10 12:01:38;;;;;;;16.13;7.97;;;4.30;99.90;;;;;;5162565;27;20187;-68
2022/01/10 12:04:05;;;;;;;16.17;8.57;;;4.80;99.90;;;;;;5161268;27;20156;-68
2022/01/10 12:06:33;;;;;;;15.23;8.27;;;5.30;99.90;;;;;;5159417;27;20152;-68
2022/01/10 12:09:00;;;;;;;16.73;7.93;;;5.40;99.90;;;;;;5159891;27;20529;-68
2022/01/10 12:11:29;;;;;;;13.97;7.23;;;5.30;99.90;;;;;;5179594;27;20107;-68
2022/01/10 12:13:58;;;;;;;16.47;7.80;;;5.00;99.90;;;;;;5162037;27;20153;-68
2022/01/10 12:16:26;;;;;;;20.50;8.47;;;4.70;99.90;;;;;;5179569;27;20344;-68
2022/01/10 12:18:54;;;;;;;14.00;7.77;;;4.40;99.90;;;;;;5162058;27;20151;-68
2022/01/10 12:21:22;;;;;;;15.07;8.07;;;4.00;99.90;;;;;;5180515;27;20159;-68
2022/01/10 12:23:49;;;;;;;17.17;8.07;;;3.70;99.90;;;;;;5178436;27;20378;-68
2022/01/10 12:26:17;;;;;;;13.30;7.43;;;3.60;99.90;;;;;;5179972;27;20136;-68
2022/01/10 12:28:44;;;;;;;15.00;7.37;;;3.40;99.90;;;;;;5160474;27;20168;-67
2022/01/10 12:31:11;;;;;;;15.03;7.37;;;3.20;99.90;;;;;;5160507;27;20190;-68
2022/01/10 12:33:38;;;;;;;14.23;7.40;;;2.90;99.90;;;;;;5180518;27;20139;-67
2022/01/10 12:36:05;;;;;;;14.77;6.90;;;2.80;99.90;;;;;;5161363;27;20159;-67
2022/01/10 12:38:32;;;;;;;12.17;7.00;;;2.60;99.90;;;;;;5178655;27;20144;-68
2022/01/10 12:40:59;;;;;;;14.63;7.57;;;2.50;99.90;;;;;;5161966;27;20541;-68
2022/01/10 12:43:26;;;;;;;13.37;6.70;;;2.40;99.90;;;;;;5180258;27;20120;-68
2022/01/10 12:45:53;;;;;;;13.93;7.10;;;2.30;99.90;;;;;;5162059;27;20203;-68
2022/01/10 12:48:24;;;;;;;12.97;7.30;;;2.30;99.90;;;;;;5161343;27;20163;-68
2022/01/10 12:50:54;;;;;;;14.03;7.20;;;2.20;99.90;;;;;;5160560;27;20203;-68
2022/01/10 12:53:21;;;;;;;13.83;7.40;;;2.10;99.90;;;;;;5179310;27;20143;-67
2022/01/10 12:55:49;;;;;;;14.57;7.10;;;2.10;99.90;;;;;;5160942;27;20188;-68
2022/01/10 12:58:15;;;;;;;16.23;6.93;;;2.10;99.90;;;;;;5160482;27;20151;-68
2022/01/10 13:00:44;;;;;;;11.87;6.53;;;2.10;99.90;;;;;;5159793;27;20163;-67
2022/01/10 13:03:11;;;;;;;15.70;7.87;;;2.10;99.90;;;;;;5159820;27;20527;-67
2022/01/10 13:05:38;;;;;;;17.37;8.60;;;2.10;99.90;;;;;;5179796;27;20452;-68
2022/01/10 13:08:07;;;;;;;16.43;7.90;;;2.10;99.90;;;;;;5160415;27;20182;-68
2022/01/10 13:10:37;;;;;;;12.67;6.73;;;2.20;99.90;;;;;;5160319;27;20148;-67
2022/01/10 13:13:04;;;;;;;12.23;6.80;;;2.30;99.90;;;;;;5160043;27;20158;-67
2022/01/10 13:15:42;;;;;;;13.50;6.63;;;2.30;99.90;;;;;;5160422;27;20170;-67
2022/01/10 13:18:12;;;;;;;15.13;6.80;;;2.40;99.90;;;;;;5160069;27;20162;-68
2022/01/10 13:20:39;;;;;;;15.13;6.90;;;2.50;99.90;;;;;;5161445;27;20155;-68
2022/01/10 13:23:11;;;;;;;12.50;6.67;;;2.70;99.90;;;;;;5162291;27;20233;-68
2022/01/10 13:25:44;;;;;;;15.57;7.30;;;2.80;99.90;;;;;;5177662;27;20159;-67
2022/01/10 13:28:13;;;;;;;13.23;6.63;;;3.00;99.90;;;;;;5162304;27;20179;-67
2022/01/10 13:30:55;;;;;;;17.53;8.00;;;3.30;99.90;;;;;;5177755;27;20166;-68
2022/01/10 13:33:37;;;;;;;18.90;8.43;;;3.60;99.90;;;;;;5160712;27;20147;-68
2022/01/10 13:36:04;;;;;;;16.87;7.60;;;3.90;99.90;;;;;;5160074;27;20171;-68
2022/01/10 13:38:34;;;;;;;13.77;7.30;;;4.10;99.90;;;;;;5179795;27;20275;-68
2022/01/10 13:41:10;;;;;;;13.47;6.87;;;4.10;99.90;;;;;;5160332;27;20170;-68
2022/01/10 13:43:37;;;;;;;14.33;7.53;;;4.10;99.90;;;;;;5177937;27;20208;-68
2022/01/10 13:46:10;;;;;;;13.73;7.57;;;4.20;99.90;;;;;;5178323;27;20155;-68
2022/01/10 13:48:40;;;;;;;15.63;8.03;;;3.90;99.90;;;;;;5159640;27;20183;-68
2022/01/10 13:51:21;;;;;;;16.57;8.00;;;3.80;99.90;;;;;;5179209;27;20144;-68
2022/01/10 13:53:51;;;;;;;19.10;8.47;;;3.70;99.90;;;;;;5159862;27;20147;-68
2022/01/10 13:56:25;;;;;;;17.87;8.53;;;3.60;99.90;;;;;;5160336;27;20163;-67
2022/01/10 13:59:05;;;;;;;16.10;8.20;;;3.30;99.90;;;;;;5160013;27;20134;-68
2022/01/10 14:01:36;;;;;;;17.07;8.50;;;3.00;99.90;;;;;;5179286;27;20145;-68
2022/01/10 14:04:31;;;;;;;16.33;8.13;;;2.60;99.90;;;;;;5159366;27;20529;-68
2022/01/10 14:07:14;;;;;;;14.80;7.90;;;2.40;99.90;;;;;;5176868;27;20148;-68
2022/01/10 14:09:43;;;;;;;14.80;7.97;;;2.30;99.90;;;;;;5159302;27;20188;-68
2022/01/10 14:12:11;;;;;;;18.70;9.03;;;2.30;99.90;;;;;;5160027;27;20174;-68
2022/01/10 14:14:39;;;;;;;19.03;8.70;;;2.10;99.90;;;;;;5179280;27;20111;-68
2022/01/10 14:17:06;;;;;;;16.80;8.63;;;2.00;99.90;;;;;;5159670;27;20156;-68
2022/01/10 14:19:34;;;;;;;17.03;9.00;;;1.70;99.90;;;;;;5160686;27;20159;-68
2022/01/10 14:22:04;;;;;;;18.07;8.87;;;1.60;99.90;;;;;;5159862;27;20179;-68
2022/01/10 14:24:36;;;;;;;18.37;9.33;;;1.40;99.90;;;;;;5177294;27;20144;-68
2022/01/10 14:27:11;;;;;;;17.73;9.17;;;1.20;99.90;;;;;;5145198;27;20206;-68
2022/01/10 14:29:42;;;;;;;21.17;9.30;;;1.10;99.90;;;;;;5161693;27;20213;-67
2022/01/10 14:32:11;;;;;;;20.97;9.67;;;1.00;99.90;;;;;;5178603;27;20127;-69
2022/01/10 14:34:38;;;;;;;21.30;9.70;;;1.00;99.90;;;;;;5178431;27;20138;-67
2022/01/10 14:37:06;;;;;;;21.23;9.80;;;0.90;99.90;;;;;;5160526;27;20186;-68
2022/01/10 14:39:36;;;;;;;22.43;10.53;;;0.70;99.90;;;;;;5179795;27;20198;-68
2022/01/10 14:42:04;;;;;;;22.83;10.23;;;0.60;99.90;;;;;;5178817;27;20183;-67
2022/01/10 14:44:42;;;;;;;22.40;10.77;;;0.60;99.90;;;;;;5201688;27;20142;-67
2022/01/10 14:47:11;;;;;;;20.07;10.23;;;0.50;99.90;;;;;;5182360;27;20209;-68
2022/01/10 14:49:51;;;;;;;22.90;10.93;;;0.40;99.90;;;;;;5182997;27;20144;-67
2022/01/10 14:52:19;;;;;;;22.43;10.77;;;0.30;99.90;;;;;;5181582;27;20157;-68
2022/01/10 14:54:46;;;;;;;25.67;10.80;;;0.20;99.90;;;;;;5183178;27;20157;-68
2022/01/10 14:57:14;;;;;;;23.47;11.17;;;0.10;99.90;;;;;;5202201;27;20140;-67
2022/01/10 14:59:41;;;;;;;25.90;11.90;;;0.00;99.90;;;;;;5182185;27;20150;-67
2022/01/10 15:02:09;;;;;;;25.73;11.60;;;0.00;99.90;;;;;;5183467;27;20219;-68
2022/01/10 15:04:39;;;;;;;25.87;11.13;;;-0.10;99.90;;;;;;5181546;27;20146;-68
2022/01/10 15:07:10;;;;;;;23.50;11.70;;;-0.10;99.90;;;;;;5182741;27;20200;-68
2022/01/10 15:09:37;;;;;;;26.97;12.73;;;-0.20;99.90;;;;;;5182055;27;20155;-68
2022/01/10 15:12:08;;;;;;;30.13;13.87;;;-0.30;99.90;;;;;;5182148;27;20205;-68
2022/01/10 15:15:02;;;;;;;40.97;18.53;;;-0.30;99.90;;;;;;5182582;27;20147;-68
2022/01/10 15:17:34;;;;;;;49.07;21.67;;;-0.40;99.90;;;;;;5094721;28;20121;-68
2022/01/10 15:20:03;;;;;;;57.63;24.83;;;-0.40;99.90;;;;;;5078158;28;20157;-68
2022/01/10 15:22:31;;;;;;;62.20;26.50;;;-0.50;99.90;;;;;;5077883;28;20151;-67
2022/01/10 15:25:08;;;;;;;62.93;25.10;;;-0.50;99.90;;;;;;5078935;28;20171;-68
2022/01/10 15:27:36;;;;;;;61.17;25.97;;;-0.60;99.90;;;;;;5094726;28;20135;-68
2022/01/10 15:30:04;;;;;;;48.73;21.77;;;-0.70;99.90;;;;;;5077753;28;20201;-68
2022/01/10 15:32:56;;;;;;;47.17;19.10;;;-0.70;99.90;;;;;;5077822;28;20171;-68
2022/01/10 15:35:26;;;;;;;40.07;16.97;;;-0.80;99.90;;;;;;5077442;28;20152;-68
2022/01/10 15:37:54;;;;;;;33.83;15.03;;;-0.80;99.90;;;;;;5077957;28;20168;-68
2022/01/10 15:40:29;;;;;;;28.53;12.63;;;-0.80;99.90;;;;;;5078085;28;20161;-68
2022/01/10 15:42:57;;;;;;;29.50;13.07;;;-0.90;99.90;;;;;;5094183;28;20431;-68
2022/01/10 15:45:27;;;;;;;29.07;13.27;;;-0.90;99.90;;;;;;5078227;28;20142;-68